createdAt,value
2018-11-23T00:00:01.714Z,986.65
2018-11-23T00:01:01.658Z,986.68
2018-11-23T00:02:01.593Z,986.62
2018-11-23T00:03:01.530Z,986.62
2018-11-23T00:04:01.473Z,986.63
2018-11-23T00:05:01.412Z,986.64
2018-11-23T00:06:01.352Z,986.56
2018-11-23T00:07:01.293Z,986.63
2018-11-23T00:08:01.232Z,986.64
2018-11-23T00:09:01.167Z,986.63
2018-11-23T00:10:01.107Z,986.63
2018-11-23T00:11:01.047Z,986.64
2018-11-23T00:12:00.987Z,986.64
2018-11-23T00:13:00.929Z,986.64
2018-11-23T00:14:00.866Z,986.67
2018-11-23T00:15:00.805Z,986.67
2018-11-23T00:16:00.745Z,986.65
2018-11-23T00:17:00.684Z,986.67
2018-11-23T00:18:00.624Z,986.65
2018-11-23T00:19:00.565Z,986.67
2018-11-23T00:20:00.503Z,986.66
2018-11-23T00:21:00.448Z,986.64
2018-11-23T00:22:00.382Z,986.71
2018-11-23T00:23:00.322Z,986.64
2018-11-23T00:24:00.265Z,986.64
2018-11-23T00:25:00.201Z,986.64
2018-11-23T00:26:00.141Z,986.65
2018-11-23T00:27:00.080Z,986.66
2018-11-23T00:28:00.021Z,986.66
2018-11-23T00:28:59.958Z,986.67
2018-11-23T00:29:59.906Z,986.65
2018-11-23T00:30:59.840Z,986.64
2018-11-23T00:31:59.780Z,986.67
2018-11-23T00:32:59.717Z,986.61
2018-11-23T00:33:59.656Z,986.61
2018-11-23T00:34:59.600Z,986.60
2018-11-23T00:35:59.536Z,986.59
2018-11-23T00:36:59.475Z,986.61
2018-11-23T00:37:59.415Z,986.63
2018-11-23T00:38:59.356Z,986.67
2018-11-23T00:39:59.294Z,986.59
2018-11-23T00:40:59.232Z,986.65
2018-11-23T00:41:59.172Z,986.65
2018-11-23T00:42:59.112Z,986.63
2018-11-23T00:43:59.051Z,986.61
2018-11-23T00:44:58.991Z,986.65
2018-11-23T00:45:58.931Z,986.65
2018-11-23T00:46:58.871Z,986.68
2018-11-23T00:47:58.810Z,986.65
2018-11-23T00:48:58.749Z,986.73
2018-11-23T00:49:58.689Z,986.71
2018-11-23T00:50:58.635Z,986.66
2018-11-23T00:51:58.571Z,986.69
2018-11-23T00:52:58.511Z,986.64
2018-11-23T00:53:58.448Z,986.62
2018-11-23T00:54:58.390Z,986.68
2018-11-23T00:55:58.327Z,986.62
2018-11-23T00:56:58.265Z,986.65
2018-11-23T00:57:58.204Z,986.65
2018-11-23T00:58:58.146Z,986.65
2018-11-23T00:59:58.085Z,986.58
2018-11-23T01:00:58.023Z,986.62
2018-11-23T01:01:57.963Z,986.67
2018-11-23T01:02:57.902Z,986.68
2018-11-23T01:03:57.846Z,986.64
2018-11-23T01:04:57.780Z,986.66
2018-11-23T01:05:57.721Z,986.70
2018-11-23T01:06:57.660Z,986.72
2018-11-23T01:07:57.600Z,986.76
2018-11-23T01:08:57.538Z,986.79
2018-11-23T01:09:57.506Z,986.73
2018-11-23T01:10:57.418Z,986.81
2018-11-23T01:11:57.357Z,986.78
2018-11-23T01:12:57.302Z,986.82
2018-11-23T01:13:57.236Z,986.79
2018-11-23T01:14:57.176Z,986.79
2018-11-23T01:15:57.115Z,986.79
2018-11-23T01:16:57.054Z,986.85
2018-11-23T01:17:56.994Z,986.83
2018-11-23T01:18:56.934Z,986.84
2018-11-23T01:19:56.874Z,986.86
2018-11-23T01:20:56.812Z,986.86
2018-11-23T01:21:56.757Z,986.89
2018-11-23T01:22:56.697Z,986.88
2018-11-23T01:23:56.630Z,986.88
2018-11-23T01:24:56.573Z,986.92
2018-11-23T01:25:56.509Z,986.95
2018-11-23T01:26:56.452Z,986.95
2018-11-23T01:27:56.392Z,987.04
2018-11-23T01:28:56.328Z,987.02
2018-11-23T01:29:56.270Z,987.02
2018-11-23T01:30:56.207Z,987.00
2018-11-23T01:31:56.147Z,987.04
2018-11-23T01:32:56.087Z,986.98
2018-11-23T01:33:56.025Z,987.00
2018-11-23T01:34:55.967Z,986.99
2018-11-23T01:35:55.904Z,986.99
2018-11-23T01:36:55.842Z,986.96
2018-11-23T01:37:55.782Z,987.00
2018-11-23T01:38:55.725Z,986.98
2018-11-23T01:39:55.669Z,986.99
2018-11-23T01:40:55.600Z,987.01
2018-11-23T01:41:55.539Z,987.02
2018-11-23T01:42:55.480Z,987.04
2018-11-23T01:43:55.420Z,987.00
2018-11-23T01:44:55.358Z,987.05
2018-11-23T01:45:55.297Z,987.04
2018-11-23T01:46:55.242Z,987.04
2018-11-23T01:47:55.178Z,987.04
2018-11-23T01:48:55.117Z,987.02
2018-11-23T01:49:55.058Z,986.99
2018-11-23T01:50:54.994Z,986.98
2018-11-23T01:51:54.934Z,987.02
2018-11-23T01:52:54.872Z,987.03
2018-11-23T01:53:54.811Z,987.00
2018-11-23T01:54:54.758Z,986.97
2018-11-23T01:55:54.694Z,987.00
2018-11-23T01:56:54.630Z,986.99
2018-11-23T01:57:54.570Z,987.04
2018-11-23T01:58:54.510Z,987.02
2018-11-23T01:59:54.449Z,987.01
2018-11-23T02:00:54.390Z,986.99
2018-11-23T02:01:54.327Z,987.04
2018-11-23T02:02:54.267Z,987.04
2018-11-23T02:03:54.206Z,987.01
2018-11-23T02:04:54.147Z,987.02
2018-11-23T02:05:54.084Z,987.06
2018-11-23T02:06:54.024Z,987.01
2018-11-23T02:07:53.964Z,987.04
2018-11-23T02:08:53.902Z,987.04
2018-11-23T02:09:53.843Z,987.03
2018-11-23T02:10:53.783Z,987.01
2018-11-23T02:11:53.721Z,987.01
2018-11-23T02:12:53.659Z,987.01
2018-11-23T02:13:53.601Z,986.99
2018-11-23T02:14:53.539Z,986.93
2018-11-23T02:15:53.478Z,986.90
2018-11-23T02:16:53.418Z,986.91
2018-11-23T02:17:53.359Z,986.91
2018-11-23T02:18:53.404Z,986.92
2018-11-23T02:19:53.235Z,986.92
2018-11-23T02:20:53.174Z,986.94
2018-11-23T02:21:53.113Z,986.97
2018-11-23T02:22:53.054Z,986.98
2018-11-23T02:23:52.992Z,987.04
2018-11-23T02:24:52.932Z,987.00
2018-11-23T02:25:52.875Z,986.99
2018-11-23T02:26:52.811Z,986.96
2018-11-23T02:27:52.749Z,987.02
2018-11-23T02:28:52.690Z,987.00
2018-11-23T02:29:52.628Z,986.96
2018-11-23T02:30:52.568Z,986.96
2018-11-23T02:32:07.069Z,986.98
2018-11-23T02:32:52.446Z,986.94
2018-11-23T02:33:52.386Z,986.94
2018-11-23T02:34:52.331Z,986.94
2018-11-23T02:35:52.265Z,986.91
2018-11-23T02:36:52.202Z,986.89
2018-11-23T02:37:52.145Z,986.86
2018-11-23T02:38:52.082Z,986.82
2018-11-23T02:39:52.022Z,986.83
2018-11-23T02:40:51.961Z,986.81
2018-11-23T02:41:51.900Z,986.76
2018-11-23T02:42:51.845Z,986.78
2018-11-23T02:43:51.780Z,986.78
2018-11-23T02:44:51.718Z,986.75
2018-11-23T02:45:51.656Z,986.73
2018-11-23T02:46:51.595Z,986.73
2018-11-23T02:47:51.537Z,986.72
2018-11-23T02:48:51.473Z,986.69
2018-11-23T02:49:51.414Z,986.65
2018-11-23T02:50:51.356Z,986.66
2018-11-23T02:51:51.293Z,986.59
2018-11-23T02:52:51.233Z,986.60
2018-11-23T02:53:51.247Z,986.61
2018-11-23T02:54:51.113Z,986.54
2018-11-23T02:55:51.056Z,986.58
2018-11-23T02:56:50.987Z,986.56
2018-11-23T02:57:50.929Z,986.55
2018-11-23T02:58:50.868Z,986.52
2018-11-23T02:59:50.805Z,986.54
2018-11-23T03:00:50.745Z,986.50
2018-11-23T03:01:50.684Z,986.51
2018-11-23T03:02:50.623Z,986.49
2018-11-23T03:03:50.563Z,986.52
2018-11-23T03:04:50.501Z,986.51
2018-11-23T03:05:50.439Z,986.52
2018-11-23T03:06:50.379Z,986.44
2018-11-23T03:07:50.323Z,986.48
2018-11-23T03:08:50.258Z,986.48
2018-11-23T03:09:50.197Z,986.43
2018-11-23T03:10:50.136Z,986.45
2018-11-23T03:11:50.076Z,986.45
2018-11-23T03:12:50.015Z,986.44
2018-11-23T03:13:49.954Z,986.46
2018-11-23T03:14:49.894Z,986.44
2018-11-23T03:15:49.835Z,986.47
2018-11-23T03:16:49.771Z,986.45
2018-11-23T03:17:49.715Z,986.45
2018-11-23T03:18:49.651Z,986.44
2018-11-23T03:19:49.590Z,986.46
2018-11-23T03:20:49.530Z,986.44
2018-11-23T03:21:49.469Z,986.48
2018-11-23T03:22:49.407Z,986.46
2018-11-23T03:23:49.347Z,986.49
2018-11-23T03:24:49.286Z,986.48
2018-11-23T03:25:49.225Z,986.52
2018-11-23T03:26:49.164Z,986.51
2018-11-23T03:27:49.102Z,986.50
2018-11-23T03:28:49.042Z,986.53
2018-11-23T03:29:48.982Z,986.55
2018-11-23T03:30:48.920Z,986.53
2018-11-23T03:31:48.859Z,986.53
2018-11-23T03:32:48.861Z,986.50
2018-11-23T03:33:48.780Z,986.53
2018-11-23T03:34:48.677Z,986.54
2018-11-23T03:35:48.617Z,986.52
2018-11-23T03:36:48.554Z,986.55
2018-11-23T03:37:48.494Z,986.53
2018-11-23T03:38:48.493Z,986.54
2018-11-23T03:39:48.372Z,986.51
2018-11-23T03:40:48.316Z,986.50
2018-11-23T03:41:48.249Z,986.53
2018-11-23T03:42:48.189Z,986.53
2018-11-23T03:43:48.129Z,986.52
2018-11-23T03:44:48.067Z,986.52
2018-11-23T03:45:48.031Z,986.54
2018-11-23T03:46:47.961Z,986.53
2018-11-23T03:47:47.885Z,986.58
2018-11-23T03:48:47.826Z,986.55
2018-11-23T03:49:47.766Z,986.56
2018-11-23T03:50:47.704Z,986.56
2018-11-23T03:52:02.587Z,986.58
2018-11-23T03:52:47.581Z,986.56
2018-11-23T03:53:47.524Z,986.56
2018-11-23T03:54:47.460Z,986.55
2018-11-23T03:55:47.398Z,986.61
2018-11-23T03:56:47.339Z,986.57
2018-11-23T03:57:47.329Z,986.58
2018-11-23T03:58:47.214Z,986.60
2018-11-23T03:59:47.155Z,986.61
2018-11-23T04:00:47.094Z,986.64
2018-11-23T04:01:47.034Z,986.62
2018-11-23T04:02:46.972Z,986.67
2018-11-23T04:03:46.910Z,986.62
2018-11-23T04:04:46.852Z,986.66
2018-11-23T04:05:46.789Z,986.62
2018-11-23T04:06:46.728Z,986.60
2018-11-23T04:07:46.667Z,986.60
2018-11-23T04:08:46.607Z,986.58
2018-11-23T04:09:46.546Z,986.60
2018-11-23T04:10:46.484Z,986.58
2018-11-23T04:11:46.423Z,986.55
2018-11-23T04:12:46.361Z,986.55
2018-11-23T04:13:46.302Z,986.54
2018-11-23T04:14:46.240Z,986.56
2018-11-23T04:15:46.181Z,986.64
2018-11-23T04:16:46.118Z,986.60
2018-11-23T04:17:46.057Z,986.57
2018-11-23T04:18:45.996Z,986.54
2018-11-23T04:19:45.935Z,986.56
2018-11-23T04:20:45.875Z,986.55
2018-11-23T04:21:45.813Z,986.56
2018-11-23T04:22:45.797Z,986.52
2018-11-23T04:23:45.693Z,986.53
2018-11-23T04:24:45.629Z,986.53
2018-11-23T04:25:45.571Z,986.53
2018-11-23T04:26:45.513Z,986.53
2018-11-23T04:27:45.448Z,986.53
2018-11-23T04:28:45.386Z,986.52
2018-11-23T04:29:45.325Z,986.54
2018-11-23T04:30:45.264Z,986.50
2018-11-23T04:31:45.205Z,986.50
2018-11-23T04:32:45.143Z,986.51
2018-11-23T04:33:45.081Z,986.51
2018-11-23T04:34:45.022Z,986.47
2018-11-23T04:35:44.961Z,986.49
2018-11-23T04:36:44.904Z,986.46
2018-11-23T04:37:44.856Z,986.46
2018-11-23T04:38:44.776Z,986.44
2018-11-23T04:39:44.716Z,986.49
2018-11-23T04:40:44.653Z,986.44
2018-11-23T04:41:46.463Z,986.46
2018-11-23T04:42:44.546Z,986.46
2018-11-23T04:43:44.472Z,986.46
2018-11-23T04:44:44.411Z,986.47
2018-11-23T04:45:44.350Z,986.41
2018-11-23T04:46:44.288Z,986.41
2018-11-23T04:47:44.226Z,986.40
2018-11-23T04:48:44.165Z,986.43
2018-11-23T04:49:44.107Z,986.40
2018-11-23T04:50:44.045Z,986.39
2018-11-23T04:51:43.989Z,986.42
2018-11-23T04:52:43.924Z,986.37
2018-11-23T04:53:43.866Z,986.44
2018-11-23T04:54:43.805Z,986.38
2018-11-23T04:55:43.739Z,986.42
2018-11-23T04:56:43.677Z,986.46
2018-11-23T04:57:43.615Z,986.44
2018-11-23T04:58:43.556Z,986.48
2018-11-23T04:59:43.495Z,986.50
2018-11-23T05:00:43.439Z,986.53
2018-11-23T05:01:43.372Z,986.49
2018-11-23T05:02:43.311Z,986.47
2018-11-23T05:03:43.257Z,986.46
2018-11-23T05:04:43.192Z,986.46
2018-11-23T05:05:43.127Z,986.43
2018-11-23T05:06:43.069Z,986.42
2018-11-23T05:07:43.006Z,986.44
2018-11-23T05:08:42.959Z,986.44
2018-11-23T05:09:42.883Z,986.40
2018-11-23T05:10:42.822Z,986.45
2018-11-23T05:11:42.761Z,986.39
2018-11-23T05:12:42.699Z,986.40
2018-11-23T05:13:42.640Z,986.41
2018-11-23T05:14:42.578Z,986.41
2018-11-23T05:15:42.519Z,986.42
2018-11-23T05:16:42.458Z,986.47
2018-11-23T05:17:42.393Z,986.43
2018-11-23T05:18:42.340Z,986.40
2018-11-23T05:19:42.273Z,986.45
2018-11-23T05:20:42.210Z,986.43
2018-11-23T05:21:42.340Z,986.39
2018-11-23T05:22:42.090Z,986.39
2018-11-23T05:23:42.032Z,986.38
2018-11-23T05:24:41.971Z,986.40
2018-11-23T05:25:41.905Z,986.40
2018-11-23T05:26:41.847Z,986.37
2018-11-23T05:27:41.787Z,986.37
2018-11-23T05:28:41.720Z,986.37
2018-11-23T05:29:41.665Z,986.35
2018-11-23T05:30:41.604Z,986.32
2018-11-23T05:31:41.539Z,986.32
2018-11-23T05:32:41.477Z,986.25
2018-11-23T05:33:41.416Z,986.29
2018-11-23T05:34:41.359Z,986.23
2018-11-23T05:35:41.297Z,986.24
2018-11-23T05:36:41.234Z,986.23
2018-11-23T05:37:41.172Z,986.24
2018-11-23T05:38:41.112Z,986.22
2018-11-23T05:39:41.051Z,986.24
2018-11-23T05:40:40.988Z,986.23
2018-11-23T05:41:40.928Z,986.21
2018-11-23T05:42:40.869Z,986.25
2018-11-23T05:43:40.805Z,986.23
2018-11-23T05:44:40.745Z,986.22
2018-11-23T05:45:40.684Z,986.24
2018-11-23T05:46:40.624Z,986.22
2018-11-23T05:47:40.561Z,986.18
2018-11-23T05:48:40.500Z,986.16
2018-11-23T05:49:40.439Z,986.13
2018-11-23T05:50:40.378Z,986.16
2018-11-23T05:51:40.316Z,986.12
2018-11-23T05:52:40.253Z,986.07
2018-11-23T05:53:40.194Z,986.09
2018-11-23T05:54:40.137Z,986.06
2018-11-23T05:55:40.080Z,986.10
2018-11-23T05:56:40.011Z,986.12
2018-11-23T05:57:39.949Z,986.17
2018-11-23T05:58:39.887Z,986.16
2018-11-23T05:59:39.831Z,986.16
2018-11-23T06:00:39.769Z,986.19
2018-11-23T06:01:39.704Z,986.19
2018-11-23T06:02:39.644Z,986.16
2018-11-23T06:03:39.585Z,986.18
2018-11-23T06:04:39.537Z,986.19
2018-11-23T06:05:39.460Z,986.14
2018-11-23T06:06:42.436Z,986.13
2018-11-23T06:07:39.339Z,986.14
2018-11-23T06:08:39.276Z,986.15
2018-11-23T06:09:39.215Z,986.14
2018-11-23T06:10:39.152Z,986.16
2018-11-23T06:11:39.092Z,986.15
2018-11-23T06:12:39.053Z,986.12
2018-11-23T06:13:38.968Z,986.14
2018-11-23T06:14:38.909Z,986.10
2018-11-23T06:15:44.369Z,986.11
2018-11-23T06:16:38.787Z,986.11
2018-11-23T06:17:38.724Z,986.12
2018-11-23T06:18:38.663Z,986.12
2018-11-23T06:19:38.600Z,986.13
2018-11-23T06:20:38.542Z,986.12
2018-11-23T06:21:38.482Z,986.16
2018-11-23T06:22:38.417Z,986.13
2018-11-23T06:23:38.362Z,986.15
2018-11-23T06:24:38.297Z,986.09
2018-11-23T06:25:38.250Z,986.07
2018-11-23T06:26:38.175Z,986.12
2018-11-23T06:27:38.114Z,986.09
2018-11-23T06:28:38.049Z,986.06
2018-11-23T06:29:37.988Z,986.09
2018-11-23T06:30:37.930Z,986.11
2018-11-23T06:31:37.866Z,986.11
2018-11-23T06:32:37.803Z,986.09
2018-11-23T06:33:37.748Z,986.13
2018-11-23T06:34:37.682Z,986.10
2018-11-23T06:35:37.624Z,986.10
2018-11-23T06:36:37.563Z,986.10
2018-11-23T06:37:37.498Z,986.10
2018-11-23T06:38:37.439Z,986.09
2018-11-23T06:39:37.379Z,986.12
2018-11-23T06:40:37.315Z,986.16
2018-11-23T06:41:37.254Z,986.15
2018-11-23T06:42:42.166Z,986.17
2018-11-23T06:43:37.133Z,986.19
2018-11-23T06:44:37.073Z,986.16
2018-11-23T06:45:37.011Z,986.14
2018-11-23T06:46:36.948Z,986.16
2018-11-23T06:47:36.886Z,986.18
2018-11-23T06:48:36.824Z,986.13
2018-11-23T06:49:36.763Z,986.14
2018-11-23T06:50:36.709Z,986.13
2018-11-23T06:51:36.640Z,986.10
2018-11-23T06:52:36.580Z,986.07
2018-11-23T06:53:36.518Z,986.04
2018-11-23T06:54:36.456Z,986.08
2018-11-23T06:55:36.396Z,986.07
2018-11-23T06:56:36.335Z,986.08
2018-11-23T06:57:36.275Z,986.03
2018-11-23T06:58:36.212Z,986.02
2018-11-23T06:59:36.150Z,986.03
2018-11-23T07:00:36.090Z,986.03
2018-11-23T07:01:36.029Z,986.03
2018-11-23T07:02:35.967Z,986.04
2018-11-23T07:03:35.908Z,985.99
2018-11-23T07:04:35.863Z,985.98
2018-11-23T07:05:35.785Z,985.98
2018-11-23T07:06:35.720Z,986.02
2018-11-23T07:07:35.777Z,986.02
2018-11-23T07:08:35.597Z,986.06
2018-11-23T07:09:35.543Z,986.06
2018-11-23T07:10:35.475Z,986.04
2018-11-23T07:11:35.416Z,986.06
2018-11-23T07:12:35.357Z,986.02
2018-11-23T07:13:35.314Z,986.03
2018-11-23T07:14:35.233Z,986.03
2018-11-23T07:15:35.169Z,986.07
2018-11-23T07:16:35.110Z,986.09
2018-11-23T07:17:35.050Z,986.13
2018-11-23T07:18:34.992Z,986.06
2018-11-23T07:19:34.925Z,986.08
2018-11-23T07:20:34.866Z,986.16
2018-11-23T07:21:34.800Z,986.12
2018-11-23T07:22:34.741Z,986.17
2018-11-23T07:23:34.678Z,986.21
2018-11-23T07:24:34.616Z,986.15
2018-11-23T07:25:34.555Z,986.16
2018-11-23T07:26:34.495Z,986.18
2018-11-23T07:27:34.432Z,986.12
2018-11-23T07:28:34.369Z,986.12
2018-11-23T07:29:34.309Z,986.12
2018-11-23T07:30:34.249Z,986.15
2018-11-23T07:31:34.187Z,986.15
2018-11-23T07:32:34.132Z,986.15
2018-11-23T07:33:34.064Z,986.18
2018-11-23T07:34:34.016Z,986.15
2018-11-23T07:35:33.942Z,986.19
2018-11-23T07:36:33.879Z,986.21
2018-11-23T07:37:33.818Z,986.20
2018-11-23T07:38:33.757Z,986.14
2018-11-23T07:39:33.697Z,986.13
2018-11-23T07:40:33.635Z,986.11
2018-11-23T07:41:33.573Z,986.10
2018-11-23T07:42:33.512Z,986.11
2018-11-23T07:43:33.450Z,986.07
2018-11-23T07:44:33.387Z,986.11
2018-11-23T07:45:33.334Z,986.14
2018-11-23T07:46:33.269Z,986.10
2018-11-23T07:47:33.206Z,986.13
2018-11-23T07:48:33.142Z,986.21
2018-11-23T07:49:33.084Z,986.20
2018-11-23T07:50:33.020Z,986.15
2018-11-23T07:51:39.063Z,986.17
2018-11-23T07:52:32.896Z,986.15
2018-11-23T07:53:32.836Z,986.14
2018-11-23T07:54:32.774Z,986.13
2018-11-23T07:55:32.713Z,986.08
2018-11-23T07:56:32.652Z,986.10
2018-11-23T07:57:32.590Z,986.19
2018-11-23T07:58:32.539Z,986.15
2018-11-23T07:59:32.471Z,986.21
2018-11-23T08:00:32.407Z,986.23
2018-11-23T08:01:32.348Z,986.26
2018-11-23T08:02:32.285Z,986.26
2018-11-23T08:03:32.225Z,986.31
2018-11-23T08:04:32.163Z,986.28
2018-11-23T08:05:32.099Z,986.28
2018-11-23T08:06:32.057Z,986.33
2018-11-23T08:07:31.977Z,986.34
2018-11-23T08:08:31.914Z,986.31
2018-11-23T08:09:31.854Z,986.28
2018-11-23T08:10:31.792Z,986.28
2018-11-23T08:11:31.735Z,986.24
2018-11-23T08:12:31.677Z,986.17
2018-11-23T08:15:03.211Z,986.16
2018-11-23T08:16:03.061Z,986.15
2018-11-23T08:17:55.842Z,986.15
2018-11-23T08:18:55.772Z,986.14
2018-11-23T08:20:48.629Z,986.20
2018-11-23T08:21:48.485Z,986.21
2018-11-23T08:23:41.268Z,986.19
2018-11-23T08:24:41.202Z,986.15
2018-11-23T08:26:34.052Z,986.20
2018-11-23T08:27:33.914Z,986.18
2018-11-23T08:29:26.697Z,986.21
2018-11-23T08:30:26.629Z,986.17
2018-11-23T08:32:19.461Z,986.20
2018-11-23T08:33:19.356Z,986.20
2018-11-23T08:35:12.135Z,986.14
2018-11-23T08:36:12.059Z,986.07
2018-11-23T08:38:04.921Z,986.06
2018-11-23T08:39:04.949Z,986.09
2018-11-23T08:40:57.561Z,986.03
2018-11-23T08:41:57.484Z,986.00
2018-11-23T08:43:50.344Z,985.93
2018-11-23T08:44:50.198Z,985.98
2018-11-23T08:46:42.978Z,985.98
2018-11-23T08:47:42.913Z,985.98
2018-11-23T08:49:35.762Z,985.97
2018-11-23T08:50:35.624Z,985.91
2018-11-23T08:52:28.400Z,985.91
2018-11-23T08:53:28.335Z,985.91
2018-11-23T08:55:21.187Z,985.79
2018-11-23T08:56:21.050Z,985.81
2018-11-23T08:58:13.826Z,985.76
2018-11-23T08:59:13.761Z,985.76
2018-11-23T09:01:06.623Z,985.80
2018-11-23T09:02:06.473Z,985.83
2018-11-23T09:03:59.257Z,985.81
2018-11-23T09:04:59.225Z,985.82
2018-11-23T09:06:52.027Z,985.89
2018-11-23T09:07:51.900Z,985.86
2018-11-23T09:09:44.678Z,985.94
2018-11-23T09:10:44.658Z,985.95
2018-11-23T09:12:37.438Z,985.91
2018-11-23T09:13:37.321Z,985.87
2018-11-23T09:15:30.203Z,985.87
2018-11-23T09:16:30.032Z,985.82
2018-11-23T09:18:22.890Z,985.82
2018-11-23T09:19:22.743Z,985.78
2018-11-23T09:21:15.525Z,985.78
2018-11-23T09:22:15.455Z,985.81
2018-11-23T09:24:08.312Z,985.83
2018-11-23T09:25:08.170Z,985.89
2018-11-23T09:27:00.954Z,985.92
2018-11-23T09:28:00.878Z,985.85
2018-11-23T09:29:53.728Z,985.89
2018-11-23T09:30:53.591Z,985.90
2018-11-23T09:32:46.369Z,985.93
2018-11-23T09:33:46.302Z,985.95
2018-11-23T09:35:39.732Z,985.99
2018-11-23T09:36:39.210Z,986.01
2018-11-23T09:38:31.988Z,985.96
2018-11-23T09:39:31.918Z,985.94
2018-11-23T09:41:24.753Z,985.93
2018-11-23T09:42:24.638Z,985.95
2018-11-23T09:44:17.405Z,985.93
2018-11-23T09:45:17.338Z,985.96
2018-11-23T09:47:10.696Z,985.91
2018-11-23T09:48:10.550Z,985.96
2018-11-23T09:49:10.489Z,985.93
2018-11-23T09:50:10.438Z,985.93
2018-11-23T09:51:10.364Z,985.91
2018-11-23T09:52:10.303Z,985.91
2018-11-23T09:53:10.241Z,985.91
2018-11-23T09:54:10.225Z,985.95
2018-11-23T09:55:10.125Z,985.96
2018-11-23T09:56:10.057Z,985.94
2018-11-23T09:57:09.999Z,985.96
2018-11-23T09:58:09.955Z,985.95
2018-11-23T09:59:09.874Z,985.91
2018-11-23T10:00:09.817Z,985.90
2018-11-23T10:01:09.759Z,985.83
2018-11-23T10:02:09.690Z,985.85
2018-11-23T10:03:09.654Z,985.80
2018-11-23T10:04:09.567Z,985.76
2018-11-23T10:05:09.528Z,985.74
2018-11-23T10:06:09.481Z,985.71
2018-11-23T10:07:09.383Z,985.67
2018-11-23T10:08:09.321Z,985.72
2018-11-23T10:09:09.263Z,985.69
2018-11-23T10:10:09.201Z,985.72
2018-11-23T10:11:10.186Z,985.77
2018-11-23T10:12:09.083Z,985.75
2018-11-23T10:13:09.018Z,985.78
2018-11-23T10:14:08.955Z,985.84
2018-11-23T10:15:08.893Z,985.78
2018-11-23T10:16:08.833Z,985.82
2018-11-23T10:17:08.770Z,985.78
2018-11-23T10:18:08.714Z,985.78
2018-11-23T10:19:08.648Z,985.75
2018-11-23T10:20:08.587Z,985.67
2018-11-23T10:21:08.527Z,985.66
2018-11-23T10:22:08.466Z,985.62
2018-11-23T10:23:08.408Z,985.61
2018-11-23T10:24:08.415Z,985.61
2018-11-23T10:25:08.282Z,985.60
2018-11-23T10:26:08.221Z,985.56
2018-11-23T10:27:08.159Z,985.66
2018-11-23T10:28:08.096Z,985.64
2018-11-23T10:29:08.034Z,985.61
2018-11-23T10:30:07.976Z,985.59
2018-11-23T10:31:07.916Z,985.61
2018-11-23T10:32:07.853Z,985.64
2018-11-23T10:33:07.790Z,985.62
2018-11-23T10:34:07.748Z,985.60
2018-11-23T10:35:07.668Z,985.56
2018-11-23T10:36:07.608Z,985.53
2018-11-23T10:37:07.546Z,985.53
2018-11-23T10:38:07.492Z,985.52
2018-11-23T10:39:07.424Z,985.51
2018-11-23T10:40:07.362Z,985.46
2018-11-23T10:41:07.301Z,985.46
2018-11-23T10:42:07.239Z,985.44
2018-11-23T10:43:07.178Z,985.38
2018-11-23T10:44:07.116Z,985.38
2018-11-23T10:45:07.058Z,985.32
2018-11-23T10:46:06.996Z,985.30
2018-11-23T10:47:06.938Z,985.24
2018-11-23T10:48:06.871Z,985.18
2018-11-23T10:49:06.810Z,985.14
2018-11-23T10:50:06.750Z,985.09
2018-11-23T10:51:06.696Z,985.10
2018-11-23T10:52:06.627Z,985.07
2018-11-23T10:53:06.565Z,985.07
2018-11-23T10:54:06.508Z,985.05
2018-11-23T10:55:06.442Z,985.01
2018-11-23T10:56:06.385Z,984.98
2018-11-23T10:57:06.321Z,984.94
2018-11-23T10:58:06.262Z,984.92
2018-11-23T10:59:06.214Z,984.93
2018-11-23T11:00:06.139Z,984.94
2018-11-23T11:01:06.076Z,984.92
2018-11-23T11:02:06.018Z,984.92
2018-11-23T11:03:05.954Z,984.83
2018-11-23T11:04:05.895Z,984.78
2018-11-23T11:05:05.831Z,984.78
2018-11-23T11:06:05.770Z,984.78
2018-11-23T11:07:05.709Z,984.82
2018-11-23T11:08:05.647Z,984.79
2018-11-23T11:09:05.586Z,984.80
2018-11-23T11:10:05.528Z,984.76
2018-11-23T11:11:05.464Z,984.73
2018-11-23T11:12:05.402Z,984.72
2018-11-23T11:13:05.342Z,984.73
2018-11-23T11:14:05.282Z,984.71
2018-11-23T11:15:05.220Z,984.68
2018-11-23T11:16:05.158Z,984.65
2018-11-23T11:17:05.102Z,984.60
2018-11-23T11:18:05.035Z,984.59
2018-11-23T11:19:04.973Z,984.55
2018-11-23T11:20:04.924Z,984.55
2018-11-23T11:21:04.855Z,984.52
2018-11-23T11:22:04.792Z,984.47
2018-11-23T11:23:04.732Z,984.47
2018-11-23T11:24:04.670Z,984.45
2018-11-23T11:25:04.611Z,984.45
2018-11-23T11:26:04.549Z,984.46
2018-11-23T11:27:04.486Z,984.43
2018-11-23T11:28:04.426Z,984.49
2018-11-23T11:29:04.364Z,984.46
2018-11-23T11:30:04.325Z,984.47
2018-11-23T11:31:04.245Z,984.49
2018-11-23T11:32:04.180Z,984.46
2018-11-23T11:33:04.119Z,984.45
2018-11-23T11:34:04.058Z,984.43
2018-11-23T11:35:03.997Z,984.41
2018-11-23T11:36:03.936Z,984.39
2018-11-23T11:37:03.875Z,984.33
2018-11-23T11:38:03.814Z,984.32
2018-11-23T11:39:03.753Z,984.27
2018-11-23T11:40:03.692Z,984.29
2018-11-23T11:41:03.630Z,984.28
2018-11-23T11:42:03.570Z,984.29
2018-11-23T11:43:03.510Z,984.28
2018-11-23T11:44:03.448Z,984.22
2018-11-23T11:45:03.389Z,984.22
2018-11-23T11:46:03.327Z,984.24
2018-11-23T11:47:03.264Z,984.18
2018-11-23T11:48:03.203Z,984.20
2018-11-23T11:49:03.143Z,984.15
2018-11-23T11:50:03.081Z,984.24
2018-11-23T11:51:03.028Z,984.18
2018-11-23T11:52:02.961Z,984.21
2018-11-23T11:53:02.904Z,984.18
2018-11-23T11:54:02.841Z,984.15
2018-11-23T11:55:02.776Z,984.09
2018-11-23T11:56:02.718Z,984.17
2018-11-23T11:57:02.661Z,984.08
2018-11-23T11:58:02.599Z,984.07
2018-11-23T11:59:02.532Z,984.12
2018-11-23T12:00:02.472Z,984.08
2018-11-23T12:01:02.412Z,984.05
2018-11-23T12:02:02.355Z,984.02
2018-11-23T12:03:02.293Z,984.01
2018-11-23T12:04:02.229Z,983.97
2018-11-23T12:05:02.168Z,983.99
2018-11-23T12:06:02.110Z,984.00
2018-11-23T12:07:02.047Z,984.01
2018-11-23T12:08:01.995Z,984.02
2018-11-23T12:09:01.926Z,983.99
2018-11-23T12:10:01.864Z,984.02
2018-11-23T12:11:01.804Z,984.01
2018-11-23T12:12:01.744Z,983.94
2018-11-23T12:13:01.682Z,983.94
2018-11-23T12:14:01.621Z,983.94
2018-11-23T12:15:01.560Z,983.93
2018-11-23T12:16:01.499Z,983.94
2018-11-23T12:17:01.439Z,983.99
2018-11-23T12:18:01.382Z,983.98
2018-11-23T12:19:01.314Z,983.95
2018-11-23T12:20:01.258Z,983.97
2018-11-23T12:21:01.199Z,983.92
2018-11-23T12:22:01.135Z,983.86
2018-11-23T12:23:01.075Z,983.88
2018-11-23T12:24:01.011Z,983.83
2018-11-23T12:25:00.951Z,983.82
2018-11-23T12:26:00.890Z,983.82
2018-11-23T12:27:00.828Z,983.79
2018-11-23T12:28:00.773Z,983.73
2018-11-23T12:29:00.726Z,983.74
2018-11-23T12:30:00.647Z,983.73
2018-11-23T12:31:00.587Z,983.70
2018-11-23T12:32:00.525Z,983.71
2018-11-23T12:33:00.466Z,983.65
2018-11-23T12:34:00.405Z,983.65
2018-11-23T12:35:00.343Z,983.61
2018-11-23T12:36:00.282Z,983.61
2018-11-23T12:37:00.223Z,983.61
2018-11-23T12:38:00.162Z,983.60
2018-11-23T12:39:00.108Z,983.56
2018-11-23T12:40:00.057Z,983.56
2018-11-23T12:40:59.979Z,983.55
2018-11-23T12:41:59.918Z,983.59
2018-11-23T12:42:59.879Z,983.53
2018-11-23T12:43:59.797Z,983.56
2018-11-23T12:44:59.735Z,983.60
2018-11-23T12:45:59.680Z,983.55
2018-11-23T12:47:00.244Z,983.60
2018-11-23T12:47:59.553Z,983.60
2018-11-23T12:48:59.492Z,983.61
2018-11-23T12:49:59.430Z,983.62
2018-11-23T12:50:59.369Z,983.61
2018-11-23T12:51:59.310Z,983.61
2018-11-23T12:53:06.184Z,983.63
2018-11-23T12:53:59.191Z,983.62
2018-11-23T12:54:59.126Z,983.59
2018-11-23T12:55:59.066Z,983.57
2018-11-23T12:56:59.008Z,983.56